AirNav   Get $300 off a Bose A20
 
 1035 users online  

T37 Goldthwaite Municipal Airport
Goldthwaite, Texas, USA

GOING TO GOLDTHWAITE?


FAA INFORMATION EFFECTIVE 25 APRIL 2019

Location

FAA Identifier: T37
Lat/Long: 31-25-44.6400N / 098-36-30.0800W
31-25.744000N / 098-36.501333W
31.4290667 / -98.6083556
(estimated)
Elevation: 1457 ft. / 444 m (estimated)
From city: 2 miles SW of GOLDTHWAITE, TX
Time zone: UTC -5 (UTC -6 during Standard Time)
Zip code: 76844

Airport Operations

Airport use: Open to the public
Activation date: 08/2010
Control tower: no
ARTCC: FORT WORTH CENTER
FSS: FORT WORTH FLIGHT SERVICE STATION
NOTAMs facility: FTW (NOTAM-D service available)
Attendance: 0800-1700
Wind indicator: lighted
Segmented circle: yes

Airport Communications

CTAF: 122.9
WX AWOS-3 at 81R (13 nm SW): PHONE 325-372-6027

Nearby radio navigation aids

VOR radial/distance  VOR name  Freq  Var
AGJr296/28.0GOOCH SPRINGS VORTAC112.5005E
BWDr139/33.0BROWNWOOD VOR/DME108.6008E
LLOr006/39.1LLANO VORTAC108.2008E

 
NDB name  Hdg/Dist  Freq  Var  ID
BRADY061/39.638007EBBD -... -... -..

Airport Services

Parking: hangars

Runway Information

Runway 1/19

Dimensions: 3200 x 60 ft. / 975 x 18 m
Surface: asphalt, in good condition
Weight bearing capacity: 
Single wheel: 12.5
RUNWAY 1  RUNWAY 19
Latitude: 31-25.485000N31-26.002833N
Longitude: 098-36.560833W098-36.442000W
Elevation: 1445.0 ft.1457.0 ft.
Traffic pattern: leftleft
Markings: basic, in fair conditionbasic, in fair condition
Obstructions: 3 ft. fence, 200 ft. from runway, 91 ft. left of centerline
3 FT FENCE 0-200 FT FM THLD 91 FT L.
50 ft. tree, 1133 ft. from runway, 32 ft. left of centerline, 18:1 slope to clear

Airport Ownership and Management from official FAA records

Ownership: Publicly-owned
Owner: CITY OF GOLDTHWAITE
PO BOX 450
GOLDTHWAITE, TX 76844-0450
Phone 325-648-3186
Manager: ROBERT LINDSEY
PO BOX 450
GOLDTHWAITE, TX 76844-0450
Phone 325-648-3186
CITY MANAGER

Airport Operational Statistics

Aircraft based on the field: 9
Single engine airplanes: 9
    
Aircraft operations: avg 52/week *
67% local general aviation
33% transient general aviation
* for 12-month period ending 13 September 2017

Additional Remarks

RWY 01 HAS 4 FT FENCE AND ISOLATED + 18 FT TREES 400-475 FT FM THLD ACROSS APCH.
DEER ON & INVOF ARPT.

Instrument Procedures

There are no published instrument procedures at T37.

Some nearby airports with instrument procedures:

KMNZ - Hamilton Municipal Airport (27 nm NE)
KBWD - Brownwood Regional Airport (28 nm NW)
KLZZ - Lampasas Airport (29 nm SE)
KMKN - Comanche County-City Airport (29 nm N)
KAQO - Llano Municipal Airport (39 nm S)
 
Loc | Ops | Rwys | IFR | FBO | Links
Com | Nav | Svcs | Stats | Notes
Aerial photo
WARNING: Photo may not be current or correct
Aerial photo of T37 (Goldthwaite Municipal Airport)
Photo taken 20-Sep-2010

Do you have a better or more recent aerial photo of Goldthwaite Municipal Airport that you would like to share? If so, please send us your photo.

 
Sectional chart

 
Airport distance calculator
Flying to Goldthwaite Municipal Airport? Find the distance to fly.

From to T37

Sunrise and sunset
Times for 26-Apr-2019
 Local
(UTC-5)
 Zulu
(UTC)
Morning civil twilight06:3011:30
Sunrise06:5511:55
Sunset20:0901:09
Evening civil twilight20:3501:35

Current date and time
Zulu (UTC)  26-Apr-2019 12:50:28
Local (UTC-5)  26-Apr-2019 07:50:28
 
METAR
KMNZ 
27nm NE 
261235Z AUTO 36005KT 10SM CLR 14/11 A3019 RMK AO2 T01360110
KBWD 
28nm NW 
261215Z AUTO 03005KT 10SM CLR 15/10 A3020 RMK AO1
KLZZ 
29nm SE 
261235Z AUTO 01006KT 10SM CLR 15/11 A3017 RMK AO2 T01480110
KMKN 
29nm N 
261235Z AUTO 34006KT 10SM CLR 13/11 A3020 RMK AO2 T01300112
KAQO 
39nm S 
261230Z AUTO 04003KT 10SM CLR 17/11 A3021 RMK AO2
KBBD 
40nm W 
261235Z AUTO 05008KT 10SM CLR 14/10 A3019 RMK AO2
KGOP 
42nm E 
261235Z AUTO 34007KT 10SM CLR 14/11 A3018 RMK AO2
KGRK 
45nm SE 
261158Z AUTO 36011KT 10SM CLR 15/12 A3013 RMK AO2 SLP196 T01450120 10189 20145 52022
KBMQ 
46nm SE 
261153Z AUTO 02011KT 10SM CLR 16/12 A3015 RMK AO2 SLP196 T01610117 10183 20150 52016 $
KCOM 
48nm NW 
261235Z AUTO 01007KT 10SM CLR 13/10 A3021 RMK AO2 T01340100
TAF
KBBD 
40nm W 
261120Z 2612/2712 04011KT P6SM SKC FM262100 12007KT P6SM SCT250 FM270600 15009KT P6SM SCT150 WS015/18035KT
KGRK 
45nm SE 
260800Z 2608/2714 34006KT 9999 FEW040 QNH3000INS BECMG 2614/2615 03015G20KT 9999 SKC 510033 QNH3007INS BECMG 2618/2619 06009KT 9999 SKC QNH3004INS TX28/2621Z TN14/2612Z
NOTAMs
Click for the latest NOTAMs
NOTAMs are issued by the DoD/FAA and will open in a separate window not controlled by AirNav.

 

 
 

Would you like to see your business listed on this page?

 If your business provides an interesting product or service to pilots, flight crews, aircraft, or users of the Goldthwaite Municipal Airport, you should consider listing it here.  To start the listing process, click on the button below
 
Add a business
 

Other Pages about Goldthwaite Municipal Airport

Update a link
 
Copyright © AirNav, LLC. All rights reserved. Privacy Policy  Contact